createdAt,value
2019-05-11T00:00:12.116Z,12.91
2019-05-11T00:02:43.759Z,12.93
2019-05-11T00:05:15.418Z,12.70
2019-05-11T00:07:47.069Z,12.57
2019-05-11T00:10:18.827Z,12.64
2019-05-11T00:12:50.481Z,12.63
2019-05-11T00:15:22.547Z,12.63
2019-05-11T00:17:54.402Z,12.61
2019-05-11T00:20:25.961Z,12.64
2019-05-11T00:22:57.716Z,12.60
2019-05-11T00:25:29.161Z,12.54
2019-05-11T00:28:00.743Z,12.39
2019-05-11T00:30:32.370Z,12.39
2019-05-11T00:33:04.334Z,12.42
2019-05-11T00:35:35.885Z,12.27
2019-05-11T00:38:07.641Z,12.30
2019-05-11T00:40:39.402Z,12.19
2019-05-11T00:43:10.167Z,12.17
2019-05-11T00:45:41.278Z,12.20
2019-05-11T00:48:12.930Z,12.24
2019-05-11T00:50:44.689Z,12.25
2019-05-11T00:53:16.595Z,12.21
2019-05-11T00:55:48.408Z,12.22
2019-05-11T00:58:21.392Z,12.24
2019-05-11T01:00:53.081Z,12.34
2019-05-11T01:03:24.309Z,12.40
2019-05-11T01:05:55.061Z,12.36
2019-05-11T01:08:26.173Z,12.41
2019-05-11T01:10:57.825Z,12.37
2019-05-11T01:13:30.306Z,12.35
2019-05-11T01:16:02.064Z,12.43
2019-05-11T01:18:34.022Z,12.45
2019-05-11T01:21:05.572Z,12.46
2019-05-11T01:23:37.929Z,12.44
2019-05-11T01:26:09.300Z,12.46
2019-05-11T01:28:41.149Z,12.49
2019-05-11T01:31:11.916Z,12.59
2019-05-11T01:33:43.243Z,12.62
2019-05-11T01:36:14.792Z,12.41
2019-05-11T01:38:46.646Z,12.46
2019-05-11T01:41:18.607Z,12.45
2019-05-11T01:43:50.361Z,12.37
2019-05-11T01:46:22.225Z,12.35
2019-05-11T01:48:53.982Z,12.46
2019-05-11T01:51:25.966Z,12.48
2019-05-11T01:53:57.397Z,12.38
2019-05-11T01:56:29.251Z,12.46
2019-05-11T01:59:01.013Z,12.48
2019-05-11T02:01:32.262Z,12.47
2019-05-11T02:04:03.817Z,12.58
2019-05-11T02:06:35.769Z,12.54
2019-05-11T02:09:07.734Z,12.55
2019-05-11T02:11:39.388Z,12.42
2019-05-11T02:14:11.243Z,12.42
2019-05-11T02:16:43.207Z,12.35
2019-05-11T02:19:14.966Z,12.53
2019-05-11T02:21:45.736Z,12.55
2019-05-11T02:24:16.824Z,12.51
2019-05-11T02:26:48.603Z,12.50
2019-05-11T02:29:20.360Z,12.45
2019-05-11T02:31:51.126Z,12.47
2019-05-11T02:34:22.441Z,12.48
2019-05-11T02:36:53.992Z,12.47
2019-05-11T02:39:25.748Z,12.39
2019-05-11T02:41:58.631Z,12.47
2019-05-11T02:44:29.296Z,12.47
2019-05-11T02:47:00.616Z,12.53
2019-05-11T02:49:32.581Z,12.63
2019-05-11T02:52:04.924Z,12.59
2019-05-11T02:54:37.590Z,12.65
2019-05-11T02:57:08.973Z,12.80
2019-05-11T02:59:40.627Z,12.94
2019-05-11T03:02:12.602Z,12.98
2019-05-11T03:04:44.141Z,13.15
2019-05-11T03:07:15.715Z,13.60
2019-05-11T03:09:47.557Z,14.09
2019-05-11T03:12:19.619Z,14.64
2019-05-11T03:14:51.173Z,15.04
2019-05-11T03:17:24.463Z,15.33
2019-05-11T03:19:55.814Z,14.78
2019-05-11T03:22:27.463Z,15.19
2019-05-11T03:24:58.919Z,15.01
2019-05-11T03:27:30.591Z,14.94
2019-05-11T03:30:02.555Z,14.58
2019-05-11T03:32:36.030Z,14.22
2019-05-11T03:35:07.888Z,14.24
2019-05-11T03:37:39.658Z,14.17
2019-05-11T03:40:12.021Z,14.04
2019-05-11T03:42:43.877Z,14.30
2019-05-11T03:45:16.066Z,14.59
2019-05-11T03:47:47.699Z,14.73
2019-05-11T03:50:19.565Z,15.15
2019-05-11T03:52:51.629Z,15.24
2019-05-11T03:55:23.085Z,15.20
2019-05-11T03:57:55.658Z,15.27
2019-05-11T04:00:27.415Z,14.80
2019-05-11T04:02:59.476Z,14.41
2019-05-11T04:05:31.022Z,14.83
2019-05-11T04:08:02.578Z,14.90
2019-05-11T04:10:34.339Z,14.90
2019-05-11T04:13:05.886Z,15.20
2019-05-11T04:15:37.566Z,15.04
2019-05-11T04:18:09.094Z,15.08
2019-05-11T04:20:40.954Z,15.45
2019-05-11T04:23:13.017Z,15.71
2019-05-11T04:25:44.880Z,15.64
2019-05-11T04:28:16.652Z,15.86
2019-05-11T04:30:48.398Z,15.92
2019-05-11T04:33:19.947Z,15.82
2019-05-11T04:35:51.604Z,16.14
2019-05-11T04:38:23.462Z,16.31
2019-05-11T04:40:55.114Z,16.58
2019-05-11T04:43:27.008Z,16.51
2019-05-11T04:45:58.636Z,16.23
2019-05-11T04:48:30.275Z,16.58
2019-05-11T04:51:02.041Z,16.80
2019-05-11T04:53:33.087Z,16.67
2019-05-11T04:56:04.235Z,16.63
2019-05-11T04:58:34.888Z,16.68
2019-05-11T05:01:06.614Z,16.72
2019-05-11T05:03:41.046Z,17.01
2019-05-11T05:06:22.202Z,17.27
2019-05-11T05:08:44.658Z,17.27
2019-05-11T05:11:16.715Z,17.28
2019-05-11T05:13:48.370Z,16.10
2019-05-11T05:16:20.231Z,15.80
2019-05-11T05:18:51.781Z,15.82
2019-05-11T05:21:23.435Z,16.29
2019-05-11T05:23:54.097Z,16.46
2019-05-11T05:26:25.319Z,16.56
2019-05-11T05:28:56.867Z,16.58
2019-05-11T05:31:28.727Z,16.79
2019-05-11T05:34:01.446Z,16.83
2019-05-11T05:36:33.061Z,16.95
2019-05-11T05:39:08.901Z,16.96
2019-05-11T05:41:40.674Z,17.09
2019-05-11T05:44:13.144Z,17.00
2019-05-11T05:46:44.694Z,16.94
2019-05-11T05:49:15.462Z,17.08
2019-05-11T05:51:46.897Z,16.79
2019-05-11T05:54:18.842Z,17.07
2019-05-11T05:56:50.499Z,17.32
2019-05-11T05:59:22.562Z,16.94
2019-05-11T06:01:54.383Z,17.22
2019-05-11T06:04:25.977Z,16.99
2019-05-11T06:06:57.829Z,17.34
2019-05-11T06:09:29.800Z,16.86
2019-05-11T06:12:01.579Z,17.06
2019-05-11T06:14:33.433Z,16.86
2019-05-11T06:17:04.964Z,17.50
2019-05-11T06:19:36.925Z,17.98
2019-05-11T06:22:08.692Z,17.38
2019-05-11T06:24:40.132Z,16.98
2019-05-11T06:27:10.895Z,17.66
2019-05-11T06:29:42.112Z,17.76
2019-05-11T06:32:13.864Z,17.35
2019-05-11T06:34:45.421Z,17.61
2019-05-11T06:37:16.183Z,17.60
2019-05-11T06:39:49.139Z,17.35
2019-05-11T06:42:21.003Z,17.53
2019-05-11T06:44:52.650Z,17.29
2019-05-11T06:47:25.847Z,17.68
2019-05-11T06:49:57.540Z,17.75
2019-05-11T06:52:29.575Z,17.77
2019-05-11T06:55:01.115Z,18.11
2019-05-11T06:57:32.873Z,17.81
2019-05-11T07:00:05.827Z,18.49
2019-05-11T07:02:38.027Z,17.73
2019-05-11T07:05:10.090Z,17.59
2019-05-11T07:07:47.412Z,17.94
2019-05-11T07:10:15.676Z,17.68
2019-05-11T07:12:47.246Z,17.30
2019-05-11T07:15:18.759Z,17.35
2019-05-11T07:17:50.511Z,17.25
2019-05-11T07:20:23.399Z,17.42
2019-05-11T07:22:55.054Z,17.84
2019-05-11T07:25:26.914Z,17.93
2019-05-11T07:27:58.568Z,17.63
2019-05-11T07:30:30.222Z,17.86
2019-05-11T07:33:02.389Z,18.08
2019-05-11T07:35:34.553Z,18.16
2019-05-11T07:38:08.353Z,18.63
2019-05-11T07:40:39.509Z,18.56
2019-05-11T07:43:11.879Z,18.70
2019-05-11T07:45:43.532Z,17.73
2019-05-11T07:48:15.403Z,18.15
2019-05-11T07:50:48.021Z,18.47
2019-05-11T07:53:19.933Z,18.75
2019-05-11T07:55:51.591Z,18.83
2019-05-11T07:58:22.349Z,18.18
2019-05-11T08:00:53.864Z,18.40
2019-05-11T08:03:28.183Z,18.43
2019-05-11T08:06:02.757Z,18.19
2019-05-11T08:08:33.132Z,18.41
2019-05-11T08:11:07.942Z,18.86
2019-05-11T08:13:39.018Z,18.47
2019-05-11T08:16:11.578Z,18.59
2019-05-11T08:18:43.437Z,18.63
2019-05-11T08:21:17.692Z,19.01
2019-05-11T08:23:49.006Z,18.89
2019-05-11T08:26:20.661Z,18.55
2019-05-11T08:28:52.624Z,19.23
2019-05-11T08:31:24.291Z,19.82
2019-05-11T08:33:58.234Z,20.36
2019-05-11T08:36:29.288Z,19.70
2019-05-11T08:39:00.777Z,19.99
2019-05-11T08:41:32.531Z,19.24
2019-05-11T08:44:04.373Z,20.22
2019-05-11T08:46:38.374Z,20.53
2019-05-11T08:49:09.345Z,20.01
2019-05-11T08:51:41.315Z,20.11
2019-05-11T08:54:13.163Z,20.77
2019-05-11T08:56:44.713Z,20.60
2019-05-11T08:59:18.639Z,20.43
2019-05-11T09:01:50.481Z,20.25
2019-05-11T09:04:22.043Z,19.87
2019-05-11T09:06:53.894Z,19.92
2019-05-11T09:09:25.657Z,19.80
2019-05-11T09:11:58.922Z,20.30
2019-05-11T09:14:30.636Z,20.48
2019-05-11T09:17:02.307Z,20.35
2019-05-11T09:19:34.050Z,20.78
2019-05-11T09:22:08.085Z,20.89
2019-05-11T09:24:39.169Z,20.53
2019-05-11T09:27:11.024Z,19.69
2019-05-11T09:29:42.580Z,19.20
2019-05-11T09:32:14.440Z,19.41
2019-05-11T09:34:48.318Z,19.63
2019-05-11T09:37:19.489Z,19.11
2019-05-11T09:39:51.146Z,19.09
2019-05-11T09:42:23.003Z,19.42
2019-05-11T09:44:54.354Z,18.81
2019-05-11T09:47:27.945Z,18.68
2019-05-11T09:49:59.196Z,18.92
2019-05-11T09:52:32.713Z,18.58
2019-05-11T09:55:05.476Z,18.82
2019-05-11T09:57:38.800Z,18.94
2019-05-11T10:00:10.626Z,19.00
2019-05-11T10:02:42.696Z,18.97
2019-05-11T10:05:14.556Z,18.53
2019-05-11T10:07:48.365Z,18.42
2019-05-11T10:10:19.296Z,18.55
2019-05-11T10:12:53.098Z,18.24
2019-05-11T10:15:24.670Z,18.29
2019-05-11T10:17:58.221Z,18.30
2019-05-11T10:20:29.411Z,18.41
2019-05-11T10:23:01.257Z,18.56
2019-05-11T10:25:32.662Z,18.68
2019-05-11T10:28:04.255Z,18.65
2019-05-11T10:30:38.414Z,18.21
2019-05-11T10:33:09.414Z,18.38
2019-05-11T10:35:41.999Z,18.49
2019-05-11T10:38:15.082Z,18.44
2019-05-11T10:40:48.017Z,18.42
2019-05-11T10:43:20.640Z,18.25
2019-05-11T10:45:51.302Z,18.07
2019-05-11T10:48:22.703Z,18.23
2019-05-11T10:50:54.480Z,18.58
2019-05-11T10:53:27.886Z,18.54
2019-05-11T10:55:59.425Z,18.53
2019-05-11T10:58:31.286Z,18.51
2019-05-11T11:01:03.072Z,18.55
2019-05-11T11:03:35.109Z,19.06
2019-05-11T11:06:08.450Z,18.83
2019-05-11T11:08:40.181Z,18.85
2019-05-11T11:11:11.711Z,18.96
2019-05-11T11:13:43.373Z,19.23
2019-05-11T11:16:14.917Z,19.05
2019-05-11T11:18:48.570Z,18.95
2019-05-11T11:21:22.776Z,19.09
2019-05-11T11:23:53.163Z,19.04
2019-05-11T11:26:25.015Z,19.23
2019-05-11T11:28:58.125Z,19.16
2019-05-11T11:31:29.762Z,19.56
2019-05-11T11:34:01.224Z,19.58
2019-05-11T11:36:32.871Z,19.63
2019-05-11T11:39:08.366Z,19.53
2019-05-11T11:41:39.964Z,19.35
2019-05-11T11:44:12.340Z,19.38
2019-05-11T11:46:52.159Z,19.45
2019-05-11T11:49:18.795Z,19.57
2019-05-11T11:51:50.915Z,19.46
2019-05-11T11:54:23.004Z,18.93
2019-05-11T11:56:54.708Z,18.74
2019-05-11T11:59:25.545Z,17.99
2019-05-11T12:01:58.103Z,17.95
2019-05-11T12:04:30.083Z,17.81
2019-05-11T12:07:01.939Z,17.50
2019-05-11T12:09:33.714Z,16.99
2019-05-11T12:12:07.851Z,16.75
2019-05-11T12:14:39.061Z,16.88
2019-05-11T12:17:11.236Z,16.64
2019-05-11T12:19:42.879Z,16.51
2019-05-11T12:22:14.334Z,16.80
2019-05-11T12:24:48.108Z,16.83
2019-05-11T12:27:19.693Z,16.59
2019-05-11T12:29:51.550Z,16.64
2019-05-11T12:32:27.679Z,16.63
2019-05-11T12:34:59.570Z,16.48
2019-05-11T12:37:31.328Z,16.47
2019-05-11T12:40:04.003Z,16.68
2019-05-11T12:42:38.060Z,16.69
2019-05-11T12:45:10.133Z,16.59
2019-05-11T12:47:41.530Z,16.55
2019-05-11T12:50:13.491Z,16.46
2019-05-11T12:52:47.547Z,16.81
2019-05-11T12:55:18.541Z,16.86
2019-05-11T12:57:50.198Z,17.11
2019-05-11T13:00:22.258Z,16.97
2019-05-11T13:02:54.323Z,16.83
2019-05-11T13:05:25.778Z,16.62
2019-05-11T13:07:58.621Z,16.64
2019-05-11T13:10:30.417Z,16.78
2019-05-11T13:13:02.796Z,16.60
2019-05-11T13:15:34.419Z,16.56
2019-05-11T13:18:08.377Z,16.80
2019-05-11T13:20:41.640Z,16.35
2019-05-11T13:23:13.399Z,16.02
2019-05-11T13:25:45.056Z,15.81
2019-05-11T13:28:17.966Z,15.88
2019-05-11T13:30:49.599Z,16.10
2019-05-11T13:33:20.571Z,16.06
2019-05-11T13:35:51.777Z,15.87
2019-05-11T13:38:23.533Z,15.76
2019-05-11T13:40:56.116Z,15.88
2019-05-11T13:43:30.120Z,16.22
2019-05-11T13:46:01.883Z,16.32
2019-05-11T13:48:33.748Z,16.30
2019-05-11T13:51:05.496Z,16.44
2019-05-11T13:53:37.790Z,16.04
2019-05-11T13:56:09.418Z,16.11
2019-05-11T13:58:40.976Z,16.23
2019-05-11T14:01:13.245Z,16.35
2019-05-11T14:03:44.734Z,16.35
2019-05-11T14:06:18.490Z,16.49
2019-05-11T14:08:49.551Z,16.63
2019-05-11T14:11:21.291Z,16.94
2019-05-11T14:13:53.157Z,17.06
2019-05-11T14:16:27.136Z,16.78
2019-05-11T14:18:58.417Z,16.50
2019-05-11T14:21:30.372Z,16.58
2019-05-11T14:24:01.922Z,16.52
2019-05-11T14:26:33.579Z,16.60
2019-05-11T14:29:05.546Z,16.56
2019-05-11T14:31:38.650Z,16.31
2019-05-11T14:34:10.590Z,16.30
2019-05-11T14:36:42.446Z,16.08
2019-05-11T14:39:14.106Z,16.05
2019-05-11T14:41:48.561Z,15.98
2019-05-11T14:44:19.067Z,16.00
2019-05-11T14:46:50.614Z,15.93
2019-05-11T14:49:22.363Z,15.88
2019-05-11T14:51:54.639Z,15.86
2019-05-11T14:54:28.655Z,15.96
2019-05-11T14:56:59.889Z,16.15
2019-05-11T14:59:31.565Z,16.29
2019-05-11T15:02:08.679Z,16.20
2019-05-11T15:04:40.072Z,16.27
2019-05-11T15:07:12.045Z,16.19
2019-05-11T15:09:43.693Z,16.24
2019-05-11T15:12:15.451Z,16.19
2019-05-11T15:14:48.450Z,16.37
2019-05-11T15:17:19.279Z,16.44
2019-05-11T15:19:51.236Z,16.43
2019-05-11T15:22:23.097Z,16.30
2019-05-11T15:24:53.858Z,16.33
2019-05-11T15:27:25.071Z,16.45
2019-05-11T15:29:58.812Z,16.66
2019-05-11T15:32:29.931Z,16.57
2019-05-11T15:35:01.571Z,16.46
2019-05-11T15:37:34.562Z,16.58
2019-05-11T15:40:14.918Z,16.54
2019-05-11T15:42:48.673Z,16.54
2019-05-11T15:45:21.620Z,16.50
2019-05-11T15:47:53.283Z,16.49
2019-05-11T15:50:25.123Z,16.66
2019-05-11T15:52:58.223Z,16.46
2019-05-11T15:55:30.070Z,16.32
2019-05-11T15:58:01.826Z,16.41
2019-05-11T16:00:32.487Z,16.32
2019-05-11T16:03:04.132Z,16.47
2019-05-11T16:05:35.969Z,16.40
2019-05-11T16:08:08.652Z,16.46
2019-05-11T16:10:40.307Z,16.29
2019-05-11T16:13:12.265Z,16.26
2019-05-11T16:15:44.066Z,16.21
2019-05-11T16:18:18.675Z,16.19
2019-05-11T16:20:52.645Z,16.15
2019-05-11T16:23:28.410Z,16.14
2019-05-11T16:26:00.069Z,16.02
2019-05-11T16:28:31.923Z,16.04
2019-05-11T16:31:03.786Z,15.91
2019-05-11T16:33:36.678Z,15.95
2019-05-11T16:36:09.208Z,15.80
2019-05-11T16:38:42.805Z,15.69
2019-05-11T16:41:17.858Z,15.61
2019-05-11T16:43:49.635Z,15.53
2019-05-11T16:46:21.494Z,15.50
2019-05-11T16:48:53.354Z,15.41
2019-05-11T16:51:24.923Z,15.40
2019-05-11T16:53:58.776Z,15.37
2019-05-11T16:56:30.477Z,15.36
2019-05-11T16:59:02.543Z,15.27
2019-05-11T17:01:34.557Z,15.26
2019-05-11T17:04:06.048Z,15.21
2019-05-11T17:06:38.577Z,15.21
2019-05-11T17:09:10.497Z,15.17
2019-05-11T17:11:42.555Z,15.13
2019-05-11T17:14:14.131Z,15.08
2019-05-11T17:16:48.063Z,15.04
2019-05-11T17:19:19.974Z,15.06
2019-05-11T17:21:52.146Z,15.13
2019-05-11T17:24:23.892Z,15.04
2019-05-11T17:26:58.231Z,14.96
2019-05-11T17:29:29.260Z,14.94
2019-05-11T17:32:00.920Z,14.89
2019-05-11T17:34:32.801Z,14.93
2019-05-11T17:37:08.365Z,14.94
2019-05-11T17:39:39.357Z,14.96
2019-05-11T17:42:11.420Z,14.96
2019-05-11T17:44:42.981Z,14.93
2019-05-11T17:47:14.944Z,14.92
2019-05-11T17:49:57.350Z,14.89
2019-05-11T17:52:20.149Z,14.87
2019-05-11T17:54:54.947Z,14.91
2019-05-11T17:57:24.841Z,14.88
2019-05-11T17:59:57.942Z,14.83
2019-05-11T18:02:29.987Z,14.77
2019-05-11T18:05:01.441Z,14.84
2019-05-11T18:07:34.211Z,14.72
2019-05-11T18:10:08.208Z,14.74
2019-05-11T18:12:39.895Z,14.69
2019-05-11T18:15:11.925Z,14.63
2019-05-11T18:17:43.381Z,14.61
2019-05-11T18:20:18.649Z,14.58
2019-05-11T18:22:49.499Z,14.59
2019-05-11T18:25:21.227Z,14.59
2019-05-11T18:27:52.987Z,14.52
2019-05-11T18:30:24.636Z,14.61
2019-05-11T18:32:59.226Z,14.51
2019-05-11T18:35:29.694Z,14.65
2019-05-11T18:38:01.347Z,14.55
2019-05-11T18:40:33.106Z,14.41
2019-05-11T18:43:05.170Z,14.35
2019-05-11T18:45:38.297Z,14.31
2019-05-11T18:48:10.225Z,14.37
2019-05-11T18:50:41.882Z,14.40
2019-05-11T18:53:14.047Z,14.35
2019-05-11T18:55:45.597Z,14.24
2019-05-11T18:58:18.434Z,14.18
2019-05-11T19:00:50.715Z,14.14
2019-05-11T19:03:22.919Z,14.10
2019-05-11T19:05:57.577Z,14.05
2019-05-11T19:08:28.226Z,13.99
2019-05-11T19:10:59.855Z,13.98
2019-05-11T19:13:31.782Z,13.91
2019-05-11T19:16:03.643Z,13.92
2019-05-11T19:18:35.609Z,13.89
2019-05-11T19:21:09.206Z,13.81
2019-05-11T19:23:40.145Z,13.70
2019-05-11T19:26:11.800Z,13.73
2019-05-11T19:28:43.455Z,13.74
2019-05-11T19:31:15.112Z,13.89
2019-05-11T19:33:48.951Z,13.83
2019-05-11T19:36:20.260Z,13.54
2019-05-11T19:38:51.918Z,13.34
2019-05-11T19:41:23.674Z,13.28
2019-05-11T19:43:57.691Z,13.22
2019-05-11T19:46:28.733Z,13.32
2019-05-11T19:49:00.477Z,13.40
2019-05-11T19:51:32.339Z,13.33
2019-05-11T19:54:03.993Z,13.29
2019-05-11T19:56:37.798Z,13.29
2019-05-11T19:59:08.951Z,13.33
2019-05-11T20:01:43.874Z,13.33
2019-05-11T20:04:15.430Z,13.21
2019-05-11T20:06:47.936Z,13.27
2019-05-11T20:09:19.558Z,13.31
2019-05-11T20:11:51.314Z,13.40
2019-05-11T20:14:22.760Z,13.41
2019-05-11T20:16:54.324Z,13.46
2019-05-11T20:19:27.852Z,13.50
2019-05-11T20:21:59.159Z,13.50
2019-05-11T20:24:30.813Z,13.31
2019-05-11T20:27:02.471Z,13.27
2019-05-11T20:29:35.563Z,13.24
2019-05-11T20:32:08.054Z,13.11
2019-05-11T20:34:39.481Z,13.07
2019-05-11T20:37:11.136Z,13.23
2019-05-11T20:39:43.003Z,13.10
2019-05-11T20:42:13.761Z,13.15
2019-05-11T20:44:45.178Z,13.27
2019-05-11T20:47:17.849Z,13.38
2019-05-11T20:49:49.412Z,13.42
2019-05-11T20:52:21.379Z,13.38
2019-05-11T20:54:52.825Z,13.44
2019-05-11T20:57:24.275Z,13.52
2019-05-11T20:59:57.568Z,13.48
2019-05-11T21:02:29.322Z,13.40
2019-05-11T21:05:00.975Z,13.47
2019-05-11T21:07:31.709Z,13.49
2019-05-11T21:10:03.158Z,13.46
2019-05-11T21:12:35.024Z,13.46
2019-05-11T21:15:08.566Z,13.40
2019-05-11T21:21:06.513Z,13.38
2019-05-11T21:23:40.526Z,13.44
2019-05-11T21:26:11.154Z,13.46
2019-05-11T21:28:48.514Z,13.30
2019-05-11T21:31:19.074Z,13.40
2019-05-11T21:33:50.656Z,13.43
2019-05-11T21:36:22.176Z,13.46
2019-05-11T21:38:53.830Z,13.46
2019-05-11T21:41:30.492Z,13.56
2019-05-11T21:43:58.781Z,13.60
2019-05-11T21:46:29.544Z,13.71
2019-05-11T21:49:01.983Z,13.71
2019-05-11T21:51:32.750Z,13.46
2019-05-11T21:54:04.364Z,13.35
2019-05-11T21:56:40.553Z,13.39
2019-05-11T21:59:09.848Z,13.37
2019-05-11T22:01:41.695Z,13.32
2019-05-11T22:04:13.554Z,13.25
2019-05-11T22:06:45.207Z,13.25
2019-05-11T22:09:18.562Z,13.23
2019-05-11T22:11:50.172Z,13.15
2019-05-11T22:14:21.811Z,13.08
2019-05-11T22:16:53.572Z,13.22
2019-05-11T22:19:24.331Z,13.17
2019-05-11T22:21:55.546Z,13.10
2019-05-11T22:24:28.290Z,13.03
2019-05-11T22:27:00.314Z,12.98
2019-05-11T22:29:31.951Z,12.94
2019-05-11T22:32:03.704Z,12.95
2019-05-11T22:34:37.833Z,12.98
2019-05-11T22:37:09.472Z,12.93
2019-05-11T22:39:40.922Z,12.93
2019-05-11T22:42:12.679Z,12.91
2019-05-11T22:44:44.743Z,13.01
2019-05-11T22:47:17.880Z,12.92
2019-05-11T22:49:49.775Z,12.76
2019-05-11T22:52:32.983Z,12.86
2019-05-11T22:54:55.557Z,12.90
2019-05-11T22:57:27.313Z,12.87
2019-05-11T23:00:01.575Z,12.77
2019-05-11T23:02:34.201Z,12.75
2019-05-11T23:05:08.474Z,12.69
2019-05-11T23:07:41.340Z,12.51
2019-05-11T23:10:13.271Z,12.50
2019-05-11T23:12:45.030Z,12.40
2019-05-11T23:15:18.527Z,12.28
2019-05-11T23:17:50.289Z,12.33
2019-05-11T23:20:22.246Z,12.33
2019-05-11T23:22:59.070Z,12.33
2019-05-11T23:25:28.748Z,12.36
2019-05-11T23:27:59.978Z,12.28
2019-05-11T23:30:31.731Z,12.32
2019-05-11T23:33:03.491Z,12.21
2019-05-11T23:35:35.144Z,12.04
2019-05-11T23:38:07.008Z,11.92
2019-05-11T23:40:38.772Z,11.86
2019-05-11T23:43:10.418Z,11.72
2019-05-11T23:45:41.078Z,11.78
2019-05-11T23:48:12.613Z,11.85
2019-05-11T23:50:45.892Z,11.95
2019-05-11T23:53:19.599Z,11.95
2019-05-11T23:55:51.254Z,11.76
2019-05-11T23:58:22.915Z,11.65
